Ship Status Report: callsign AMOUK29

sailwx.info

Track history (hours):
 
Tides and Currents Weather Stations Pressure Air Temp Water Temp Dewpoint Dewpoint Depression Visibility Wind Speed Wind Dir Waves Ship Positions

Callsign AMOUK29 (name unknown)

Last reported at 2014-Jul-22 06:00 UTC. Time now 2014-Jul-22 07:22 UTC.
Position N 53°48' W 005°54'.

Barometer 1022.8 mb

Date/timePositionNaut miles runAvg speedWind from/ knotsBaromVisibWave heightAir tempDewpointWater temp
2014-Jul-22 06:00N 53°48' W 005°54'9 9.3 1022.8
2014-Jul-22 05:00N 53°42' W 006°06'7 7.0 1022.5
2014-Jul-22 04:00N 53°48' W 006°12'7 7.1 1022.2
2014-Jul-22 03:00N 53°48' W 006°00'7 7.1 1022.4
2014-Jul-22 02:00N 53°48' W 005°48'1110.6 1022.4
2014-Jul-22 01:00N 53°48' W 005°30'7 7.1 1022.2
2014-Jul-22 00:00N 53°48' W 005°18'1212.2 1022.4
2014-Jul-21 23:00N 53°42' W 005°00'7 7.1 1022.5
2014-Jul-21 22:00N 53°42' W 004°48'1212.2 1022.5
2014-Jul-21 21:00N 53°36' W 004°30'1110.7 1022.6
2014-Jul-21 20:00N 53°36' W 004°12'1110.7 1022.0
2014-Jul-21 19:00N 53°36' W 003°54'7 7.1 1021.5
2014-Jul-21 18:00N 53°36' W 003°42'1212.3 1021.3
2014-Jul-21 17:00N 53°30' W 003°24'0 0.0 1021.0
2014-Jul-21 16:00N 53°30' W 003°24'0 0.0 1021.2
2014-Jul-21 15:00N 53°30' W 003°24'15 7.7 1021.3
2014-Jul-21 13:00N 53°36' W 003°48'4 3.6 1021.3
2014-Jul-21 12:00N 53°36' W 003°54'1212.2 1021.0
2014-Jul-21 11:00N 53°42' W 004°12'7 7.0 1020.7
2014-Jul-21 10:00N 53°48' W 004°18'1110.6 1020.3
2014-Jul-21 09:00N 53°48' W 004°36'7 7.1 1019.9
2014-Jul-21 08:00N 53°48' W 004°48'7 7.1 1019.6
2014-Jul-21 07:00N 53°48' W 005°00'7 7.1 1019.0
2014-Jul-21 06:00N 53°48' W 005°12'1312.5 1018.4
2014-Jul-21 05:00N 53°36' W 005°18'9 9.3 1018.1
2014-Jul-21 04:00N 53°30' W 005°30'6 6.0 1017.8
2014-Jul-21 03:00N 53°24' W 005°30'1312.5 1017.6
2014-Jul-21 02:00N 53°12' W 005°24'7 7.0 1017.3
2014-Jul-21 01:00N 53°06' W 005°18'1212.0 1017.7
2014-Jul-21 00:00N 52°54' W 005°18'6 6.0 1017.8
2014-Jul-20 23:00N 52°48' W 005°18'4 3.6 1017.7
2014-Jul-20 22:00N 52°48' W 005°24'1312.5 1017.4
2014-Jul-20 21:00N 52°36' W 005°30'6 6.0 1016.9
2014-Jul-20 20:00N 52°30' W 005°30'1312.5 1016.2
2014-Jul-20 19:00N 52°18' W 005°36'7 7.0 1016.0
2014-Jul-20 18:00N 52°12' W 005°42'1212.0 1015.8
2014-Jul-20 17:00N 52°00' W 005°42'10 9.5 1015.6
2014-Jul-20 16:00N 51°54' W 005°54'1312.6 1015.4
2014-Jul-20 15:00N 51°42' W 006°00'4 3.7 1014.8
2014-Jul-20 14:00N 51°42' W 006°06'1312.6 1014.6
2014-Jul-20 13:00N 51°30' W 006°12'1312.6 1014.2
2014-Jul-20 12:00N 51°18' W 006°18'4 3.8 1013.6
2014-Jul-20 11:00N 51°18' W 006°24'10 9.6 1013.6
2014-Jul-20 10:00N 51°12' W 006°36'1414.2 1013.1
2014-Jul-20 09:00N 51°00' W 006°48'8 7.6 1012.6
2014-Jul-20 08:00N 51°00' W 007°00'10 9.7 1012.5
2014-Jul-20 07:00N 50°54' W 007°12'16 8.1 1012.1
2014-Jul-20 05:00N 50°48' W 007°36'10 9.7 1011.7
2014-Jul-20 04:00N 50°42' W 007°48'10 9.7 1011.4
2014-Jul-20 03:00N 50°36' W 008°00'17 8.3 1010.9
2014-Jul-20 01:00N 50°24' W 008°18'10 9.7 1010.1
2014-Jul-20 00:00N 50°18' W 008°30'7 7.1 1010.3
2014-Jul-19 23:00N 50°12' W 008°36'1414.3 1010.0
2014-Jul-19 22:00N 50°00' W 008°48'7 7.1 1009.8
2014-Jul-19 21:00N 49°54' W 008°54'10 9.8 1009.4
2014-Jul-19 20:00N 49°48' W 009°06'1414.3 1009.1
2014-Jul-19 19:00N 49°36' W 009°18'7 7.2 1008.7
2014-Jul-19 18:00N 49°30' W 009°24'0 0.0 1008.3
2014-Jul-19 17:00N 49°30' W 009°24'18 9.2 1008.0
2014-Jul-19 15:00N 49°48' W 009°30'1312.6 1007.9
2014-Jul-19 14:00N 50°00' W 009°36'7 7.1 1007.6
2014-Jul-19 13:00N 50°06' W 009°42'1312.6 1007.5
2014-Jul-19 12:00N 50°18' W 009°48'1312.6 1007.3
2014-Jul-19 11:00N 50°30' W 009°54'6 6.0 1007.0
2014-Jul-19 10:00N 50°36' W 009°54'1312.6 1007.3
2014-Jul-19 09:00N 50°48' W 010°00'7 7.1 1007.1
2014-Jul-19 08:00N 50°54' W 010°06'1312.6 1007.1
2014-Jul-19 07:00N 51°06' W 010°12'7 7.1 1007.3
2014-Jul-19 06:00N 51°12' W 010°18'1312.6 1007.5
2014-Jul-19 05:00N 51°24' W 010°24'7 7.1 1007.7
2014-Jul-19 04:00N 51°30' W 010°30'1312.6 1007.8
2014-Jul-19 03:00N 51°42' W 010°36'1312.6 1008.1
2014-Jul-19 02:00N 51°54' W 010°42'7 7.0 1008.4
2014-Jul-19 01:00N 52°00' W 010°48'1212.0 1008.4
2014-Jul-19 00:00N 52°12' W 010°48'1212.0 1007.7
2014-Jul-18 23:00N 52°24' W 010°48'6 6.0 1008.0
2014-Jul-18 22:00N 52°30' W 010°48'2412.1 1007.6
2014-Jul-18 20:00N 52°54' W 010°42'6 6.0 1006.9
2014-Jul-18 19:00N 53°00' W 010°42'1312.5 1006.6
2014-Jul-18 18:00N 53°12' W 010°36'1212.0 1006.2
2014-Jul-18 17:00N 53°24' W 010°36'7 7.0 1006.4
2014-Jul-18 16:00N 53°30' W 010°30'1212.0 1006.6
2014-Jul-18 15:00N 53°42' W 010°30'1312.5 1006.8
2014-Jul-18 14:00N 53°54' W 010°24'6 6.0 1007.0
2014-Jul-18 13:00N 54°00' W 010°24'1212.0 1007.2
2014-Jul-18 12:00N 54°12' W 010°24'7 6.9 1007.8
2014-Jul-18 11:00N 54°18' W 010°18'1212.5 1008.0
2014-Jul-18 10:00N 54°30' W 010°24'7 6.9 1009.0
2014-Jul-18 09:00N 54°36' W 010°30'1212.0 1009.9
2014-Jul-18 08:00N 54°48' W 010°30'7 6.9 1010.8
2014-Jul-18 07:00N 54°48' W 010°18'7 6.9 1011.7
2014-Jul-18 06:00N 54°48' W 010°06'9 9.2 1013.0
2014-Jul-18 05:00N 54°54' W 009°54'7 6.9 1013.3
2014-Jul-18 04:00N 54°54' W 009°42'9 9.1 1013.6
2014-Jul-18 03:00N 55°00' W 009°30'7 6.9 1014.5
2014-Jul-18 02:00N 55°00' W 009°18'7 6.9 1015.4
2014-Jul-18 01:00N 55°00' W 009°06'9 9.1 1016.2
2014-Jul-18 00:00N 55°06' W 008°54'18 9.1 1016.7
2014-Jul-17 22:00N 55°12' W 008°24'0 0.0 1017.8
2014-Jul-17 21:00N 55°12' W 008°24'9 9.1 1017.9
2014-Jul-17 20:00N 55°18' W 008°36'16 7.9 1018.2
2014-Jul-17 18:00N 55°30' W 008°54'7 6.8 1018.1
2014-Jul-17 17:00N 55°30' W 009°06'9 9.1 1018.9
2014-Jul-17 16:00N 55°36' W 009°18'3 3.4 1018.8
2014-Jul-17 15:00N 55°36' W 009°24'7 6.9 1018.8
2014-Jul-17 14:00N 55°42' W 009°30'3 3.4 1019.3
2014-Jul-17 13:00N 55°42' W 009°36'7 3.4 1019.1
2014-Jul-17 11:00N 55°48' W 009°42'0 0.0 1019.3
2014-Jul-17 10:00N 55°48' W 009°42'7 6.9 1018.8
2014-Jul-17 09:00N 55°54' W 009°48'1212.0 1018.9
2014-Jul-17 08:00N 56°06' W 009°48'1212.0 1018.5
2014-Jul-17 07:00N 56°18' W 009°48'0 0.0 1018.0
2014-Jul-17 06:00N 56°18' W 009°48'3 3.3 1017.9
2014-Jul-17 05:00N 56°18' W 009°42'9 9.0 1017.8
2014-Jul-17 04:00N 56°12' W 009°30'0 0.0 1017.8
2014-Jul-17 03:00N 56°12' W 009°30'3 3.3 1017.7
2014-Jul-17 02:00N 56°12' W 009°24'3 3.3 1017.7
2014-Jul-17 01:00N 56°12' W 009°18'7 6.9 1017.6
2014-Jul-17 00:00N 56°06' W 009°12'0 0.0 1017.5
2014-Jul-16 23:00N 56°06' W 009°12'0 0.0 1017.0
2014-Jul-16 22:00N 56°06' W 009°12'1211.7 1016.7
2014-Jul-16 21:00N 56°00' W 008°54'3 3.4 1016.4
2014-Jul-16 20:00N 56°00' W 008°48'9 9.0 1015.5
2014-Jul-16 19:00N 56°06' W 008°36'1010.0 1014.9
2014-Jul-16 18:00N 56°06' W 008°18'7 6.9 1014.0
2014-Jul-16 17:00N 56°12' W 008°12'1212.0 1014.1
2014-Jul-16 16:00N 56°00' W 008°12'7 6.9 1014.0
2014-Jul-16 15:00N 55°54' W 008°18'7 6.7 1013.7
2014-Jul-16 14:00N 55°54' W 008°30'9 9.0 1012.3
2014-Jul-16 13:00N 55°48' W 008°18'7 6.9 1011.5
2014-Jul-16 12:00N 55°42' W 008°12'7 6.9 1011.4
2014-Jul-16 11:00N 55°36' W 008°18'7 6.9 1011.3
2014-Jul-16 10:00N 55°30' W 008°12'1212.0 1010.9
2014-Jul-16 09:00N 55°18' W 008°12'3 3.4 1010.6
2014-Jul-16 08:00N 55°18' W 008°06'7 6.8 1009.6
2014-Jul-16 07:00N 55°18' W 007°54'7 6.8 1009.2
2014-Jul-16 06:00N 55°18' W 007°42'1212.5 1009.4
2014-Jul-16 05:00N 55°30' W 007°48'6 6.0 1009.1
2014-Jul-16 04:00N 55°36' W 007°48'7 6.9 1009.2
2014-Jul-16 03:00N 55°42' W 007°42'7 6.9 1010.1
2014-Jul-16 02:00N 55°48' W 007°48'6 6.0 1011.1
2014-Jul-16 01:00N 55°54' W 007°48'6 6.0 1011.2
2014-Jul-16 00:00N 56°00' W 007°48'9 9.0 1012.5
2014-Jul-15 23:00N 55°54' W 007°36'7 6.7 1014.1
2014-Jul-15 22:00N 55°54' W 007°24'1212.0 1014.4
2014-Jul-15 21:00N 55°42' W 007°24'1212.0 1014.6
2014-Jul-15 20:00N 55°30' W 007°24'3 3.4 1015.0
2014-Jul-15 19:00N 55°30' W 007°18'1010.2 1015.9
2014-Jul-15 18:00N 55°30' W 007°00'0 0.0 1016.8
2014-Jul-15 17:00N 55°30' W 007°00'6 6.0 1016.9
2014-Jul-15 16:00N 55°36' W 007°00'6 6.0 1017.6
2014-Jul-15 15:00N 55°42' W 007°00'3 3.4 1017.4
2014-Jul-15 14:00N 55°42' W 006°54'1211.8 1018.0
2014-Jul-15 13:00N 55°36' W 006°36'6 6.0 1018.4
2014-Jul-15 12:00N 55°30' W 006°36'0 0.0 1018.0
2014-Jul-15 11:00N 55°30' W 006°36'1212.5 1017.7
2014-Jul-15 10:00N 55°18' W 006°30'3 3.4 1017.4
2014-Jul-15 09:00N 55°18' W 006°24'7 6.8 1016.9
2014-Jul-15 08:00N 55°18' W 006°12'6 6.0 1016.6
2014-Jul-15 07:00N 55°24' W 006°12'3 3.4 1016.0
2014-Jul-15 06:00N 55°24' W 006°06'9 9.1 1015.0
2014-Jul-15 05:00N 55°18' W 005°54'6 6.0 1014.8
2014-Jul-15 04:00N 55°12' W 005°54'9 9.1 1014.4
2014-Jul-15 03:00N 55°06' W 005°42'7 6.9 1013.5
2014-Jul-15 02:00N 55°00' W 005°36'7 6.9 1013.1
2014-Jul-15 01:00N 54°54' W 005°30'7 6.9 1012.7
2014-Jul-15 00:00N 54°48' W 005°24'3 3.5 1012.6
2014-Jul-14 23:00N 54°48' W 005°30'9 9.2 1011.9
2014-Jul-14 22:00N 54°42' W 005°42'9 9.2 1011.4
2014-Jul-14 21:00N 54°36' W 005°54'0 0.0 1010.9
2014-Jul-14 20:00N 54°36' W 005°54'0 0.0 1009.9
2014-Jul-14 17:00N 54°36' W 005°54'0 0.0 1006.2
2014-Jul-14 15:00N 54°36' W 005°54'0 0.0 1004.9
2014-Jul-14 14:00N 54°36' W 005°54'0 0.0 1005.1
2014-Jul-14 13:00N 54°36' W 005°54'0 0.0 1005.5
2014-Jul-14 12:00N 54°36' W 005°54'0 0.0 1005.7
2014-Jul-14 11:00N 54°36' W 005°54'0 0.0 1006.3
2014-Jul-14 10:00N 54°36' W 005°54'0 0.0 1007.0
2014-Jul-14 09:00N 54°36' W 005°54'0 0.0 1007.4
2014-Jul-14 06:00N 54°36' W 005°54'0 0.0 1009.3
2014-Jul-14 05:00N 54°36' W 005°54'0 0.0 1009.6
2014-Jul-14 04:00N 54°36' W 005°54'0 0.0 1009.6
2014-Jul-14 03:00N 54°36' W 005°54'0 0.0 1010.1
2014-Jul-14 02:00N 54°36' W 005°54'0 0.0 1010.8
2014-Jul-14 01:00N 54°36' W 005°54'0 0.0 1011.2
2014-Jul-14 00:00N 54°36' W 005°54'0 0.0 1011.5
2014-Jul-13 23:00N 54°36' W 005°54'0 0.0 1011.7
2014-Jul-13 22:00N 54°36' W 005°54'0 0.0 1011.7
2014-Jul-13 21:00N 54°36' W 005°54'0 0.0 1011.7
2014-Jul-13 20:00N 54°36' W 005°54'0 0.0 1011.4
2014-Jul-13 19:00N 54°36' W 005°54'0 0.0 1011.1
2014-Jul-13 18:00N 54°36' W 005°54'0 0.0 1011.1
2014-Jul-13 17:00N 54°36' W 005°54'0 0.0 1011.2
2014-Jul-13 16:00N 54°36' W 005°54'0 0.0 1011.1
2014-Jul-13 15:00N 54°36' W 005°54'0 0.0 1011.1
2014-Jul-13 14:00N 54°36' W 005°54'0 0.0 1011.0
2014-Jul-13 13:00N 54°36' W 005°54'0 0.0 1010.5
2014-Jul-13 12:00N 54°36' W 005°54'0 0.0 1010.3
2014-Jul-13 11:00N 54°36' W 005°54'0 0.0 1010.1
2014-Jul-13 10:00N 54°36' W 005°54'0 0.0 1010.0
2014-Jul-13 09:00N 54°36' W 005°54'0 0.0 1010.3
2014-Jul-13 08:00N 54°36' W 005°54'0 0.0 1009.9
2014-Jul-13 07:00N 54°36' W 005°54'0 0.0 1009.5
2014-Jul-13 06:00N 54°36' W 005°54'0 0.0 1009.4
2014-Jul-13 05:00N 54°36' W 005°54'0 0.0 1008.9
2014-Jul-13 04:00N 54°36' W 005°54'0 0.0 1008.6
2014-Jul-13 03:00N 54°36' W 005°54'0 0.0 1008.6
2014-Jul-13 02:00N 54°36' W 005°54'0 0.0 1008.3
2014-Jul-13 01:00N 54°36' W 005°54'0 0.0 1008.0
2014-Jul-13 00:00N 54°36' W 005°54'7 6.9 1008.1
2014-Jul-12 23:00N 54°42' W 005°48'1010.4 1007.3
2014-Jul-12 22:00N 54°42' W 005°30'7 6.9 1007.5
2014-Jul-12 21:00N 54°36' W 005°24'7 6.9 1007.5
2014-Jul-12 20:00N 54°30' W 005°18'1212.5 1007.8
2014-Jul-12 19:00N 54°18' W 005°12'9 9.2 1008.3
2014-Jul-12 18:00N 54°12' W 005°00'1312.5 1008.9
2014-Jul-12 17:00N 54°00' W 004°54'0 0.0 1009.5
2014-Jul-12 16:00N 54°00' W 004°54'6 6.0 1010.1
2014-Jul-12 15:00N 53°54' W 004°54'0 0.0 1010.9
2014-Jul-12 14:00N 53°54' W 004°54'7 7.0 1011.3
2014-Jul-12 13:00N 53°48' W 004°48'4 3.5 1011.3
2014-Jul-12 12:00N 53°48' W 004°42'7 7.0 1012.4
2014-Jul-12 11:00N 53°54' W 004°36'0 0.0 1012.6
2014-Jul-12 10:00N 53°54' W 004°36'4 3.5 1013.1
2014-Jul-12 09:00N 53°54' W 004°30'9 9.3 1013.6
2014-Jul-12 08:00N 54°00' W 004°18'0 0.0 1014.5
2014-Jul-12 07:00N 54°00' W 004°18'0 0.0 1015.1
2014-Jul-12 06:00N 54°00' W 004°18'   1015.1
Track history (hours):
 
Tides and Currents Weather Stations Pressure Air Temp Water Temp Dewpoint Dewpoint Depression Visibility Wind Speed Wind Dir Waves Ship Positions

Callsign AMOUK29 (name unknown)

Last reported at 2014-Jul-22 06:00 UTC. Time now 2014-Jul-22 07:22 UTC.
Position N 53°48' W 005°54'.

Barometer 1022.8 mb

Date/timePositionNaut miles runAvg speedWind from/ knotsBaromVisibWave heightAir tempDewpointWater temp
2014-Jul-22 06:00N 53°48' W 005°54'9 9.3 1022.8
2014-Jul-22 05:00N 53°42' W 006°06'7 7.0 1022.5
2014-Jul-22 04:00N 53°48' W 006°12'7 7.1 1022.2
2014-Jul-22 03:00N 53°48' W 006°00'7 7.1 1022.4
2014-Jul-22 02:00N 53°48' W 005°48'1110.6 1022.4
2014-Jul-22 01:00N 53°48' W 005°30'7 7.1 1022.2
2014-Jul-22 00:00N 53°48' W 005°18'1212.2 1022.4
2014-Jul-21 23:00N 53°42' W 005°00'7 7.1 1022.5
2014-Jul-21 22:00N 53°42' W 004°48'1212.2 1022.5
2014-Jul-21 21:00N 53°36' W 004°30'1110.7 1022.6
2014-Jul-21 20:00N 53°36' W 004°12'1110.7 1022.0
2014-Jul-21 19:00N 53°36' W 003°54'7 7.1 1021.5
2014-Jul-21 18:00N 53°36' W 003°42'1212.3 1021.3
2014-Jul-21 17:00N 53°30' W 003°24'0 0.0 1021.0
2014-Jul-21 16:00N 53°30' W 003°24'0 0.0 1021.2
2014-Jul-21 15:00N 53°30' W 003°24'15 7.7 1021.3
2014-Jul-21 13:00N 53°36' W 003°48'4 3.6 1021.3
2014-Jul-21 12:00N 53°36' W 003°54'1212.2 1021.0
2014-Jul-21 11:00N 53°42' W 004°12'7 7.0 1020.7
2014-Jul-21 10:00N 53°48' W 004°18'1110.6 1020.3
2014-Jul-21 09:00N 53°48' W 004°36'7 7.1 1019.9
2014-Jul-21 08:00N 53°48' W 004°48'7 7.1 1019.6
2014-Jul-21 07:00N 53°48' W 005°00'7 7.1 1019.0
2014-Jul-21 06:00N 53°48' W 005°12'1312.5 1018.4
2014-Jul-21 05:00N 53°36' W 005°18'9 9.3 1018.1
2014-Jul-21 04:00N 53°30' W 005°30'6 6.0 1017.8
2014-Jul-21 03:00N 53°24' W 005°30'1312.5 1017.6
2014-Jul-21 02:00N 53°12' W 005°24'7 7.0 1017.3
2014-Jul-21 01:00N 53°06' W 005°18'1212.0 1017.7
2014-Jul-21 00:00N 52°54' W 005°18'6 6.0 1017.8
2014-Jul-20 23:00N 52°48' W 005°18'4 3.6 1017.7
2014-Jul-20 22:00N 52°48' W 005°24'1312.5 1017.4
2014-Jul-20 21:00N 52°36' W 005°30'6 6.0 1016.9
2014-Jul-20 20:00N 52°30' W 005°30'1312.5 1016.2
2014-Jul-20 19:00N 52°18' W 005°36'7 7.0 1016.0
2014-Jul-20 18:00N 52°12' W 005°42'1212.0 1015.8
2014-Jul-20 17:00N 52°00' W 005°42'10 9.5 1015.6
2014-Jul-20 16:00N 51°54' W 005°54'1312.6 1015.4
2014-Jul-20 15:00N 51°42' W 006°00'4 3.7 1014.8
2014-Jul-20 14:00N 51°42' W 006°06'1312.6 1014.6
2014-Jul-20 13:00N 51°30' W 006°12'1312.6 1014.2
2014-Jul-20 12:00N 51°18' W 006°18'4 3.8 1013.6
2014-Jul-20 11:00N 51°18' W 006°24'10 9.6 1013.6
2014-Jul-20 10:00N 51°12' W 006°36'1414.2 1013.1
2014-Jul-20 09:00N 51°00' W 006°48'8 7.6 1012.6
2014-Jul-20 08:00N 51°00' W 007°00'10 9.7 1012.5
2014-Jul-20 07:00N 50°54' W 007°12'16 8.1 1012.1
2014-Jul-20 05:00N 50°48' W 007°36'10 9.7 1011.7
2014-Jul-20 04:00N 50°42' W 007°48'10 9.7 1011.4
2014-Jul-20 03:00N 50°36' W 008°00'17 8.3 1010.9
2014-Jul-20 01:00N 50°24' W 008°18'10 9.7 1010.1
2014-Jul-20 00:00N 50°18' W 008°30'7 7.1 1010.3
2014-Jul-19 23:00N 50°12' W 008°36'1414.3 1010.0
2014-Jul-19 22:00N 50°00' W 008°48'7 7.1 1009.8
2014-Jul-19 21:00N 49°54' W 008°54'10 9.8 1009.4
2014-Jul-19 20:00N 49°48' W 009°06'1414.3 1009.1
2014-Jul-19 19:00N 49°36' W 009°18'7 7.2 1008.7
2014-Jul-19 18:00N 49°30' W 009°24'0 0.0 1008.3
2014-Jul-19 17:00N 49°30' W 009°24'18 9.2 1008.0
2014-Jul-19 15:00N 49°48' W 009°30'1312.6 1007.9
2014-Jul-19 14:00N 50°00' W 009°36'7 7.1 1007.6
2014-Jul-19 13:00N 50°06' W 009°42'1312.6 1007.5
2014-Jul-19 12:00N 50°18' W 009°48'1312.6 1007.3
2014-Jul-19 11:00N 50°30' W 009°54'6 6.0 1007.0
2014-Jul-19 10:00N 50°36' W 009°54'1312.6 1007.3
2014-Jul-19 09:00N 50°48' W 010°00'7 7.1 1007.1
2014-Jul-19 08:00N 50°54' W 010°06'1312.6 1007.1
2014-Jul-19 07:00N 51°06' W 010°12'7 7.1 1007.3
2014-Jul-19 06:00N 51°12' W 010°18'1312.6 1007.5
2014-Jul-19 05:00N 51°24' W 010°24'7 7.1 1007.7
2014-Jul-19 04:00N 51°30' W 010°30'1312.6 1007.8
2014-Jul-19 03:00N 51°42' W 010°36'1312.6 1008.1
2014-Jul-19 02:00N 51°54' W 010°42'7 7.0 1008.4
2014-Jul-19 01:00N 52°00' W 010°48'1212.0 1008.4
2014-Jul-19 00:00N 52°12' W 010°48'1212.0 1007.7
2014-Jul-18 23:00N 52°24' W 010°48'6 6.0 1008.0
2014-Jul-18 22:00N 52°30' W 010°48'2412.1 1007.6
2014-Jul-18 20:00N 52°54' W 010°42'6 6.0 1006.9
2014-Jul-18 19:00N 53°00' W 010°42'1312.5 1006.6
2014-Jul-18 18:00N 53°12' W 010°36'1212.0 1006.2
2014-Jul-18 17:00N 53°24' W 010°36'7 7.0 1006.4
2014-Jul-18 16:00N 53°30' W 010°30'1212.0 1006.6
2014-Jul-18 15:00N 53°42' W 010°30'1312.5 1006.8
2014-Jul-18 14:00N 53°54' W 010°24'6 6.0 1007.0
2014-Jul-18 13:00N 54°00' W 010°24'1212.0 1007.2
2014-Jul-18 12:00N 54°12' W 010°24'7 6.9 1007.8
2014-Jul-18 11:00N 54°18' W 010°18'1212.5 1008.0
2014-Jul-18 10:00N 54°30' W 010°24'7 6.9 1009.0
2014-Jul-18 09:00N 54°36' W 010°30'1212.0 1009.9
2014-Jul-18 08:00N 54°48' W 010°30'7 6.9 1010.8
2014-Jul-18 07:00N 54°48' W 010°18'7 6.9 1011.7
2014-Jul-18 06:00N 54°48' W 010°06'9 9.2 1013.0
2014-Jul-18 05:00N 54°54' W 009°54'7 6.9 1013.3
2014-Jul-18 04:00N 54°54' W 009°42'9 9.1 1013.6
2014-Jul-18 03:00N 55°00' W 009°30'7 6.9 1014.5
2014-Jul-18 02:00N 55°00' W 009°18'7 6.9 1015.4
2014-Jul-18 01:00N 55°00' W 009°06'9 9.1 1016.2
2014-Jul-18 00:00N 55°06' W 008°54'18 9.1 1016.7
2014-Jul-17 22:00N 55°12' W 008°24'0 0.0 1017.8
2014-Jul-17 21:00N 55°12' W 008°24'9 9.1 1017.9
2014-Jul-17 20:00N 55°18' W 008°36'16 7.9 1018.2
2014-Jul-17 18:00N 55°30' W 008°54'7 6.8 1018.1
2014-Jul-17 17:00N 55°30' W 009°06'9 9.1 1018.9
2014-Jul-17 16:00N 55°36' W 009°18'3 3.4 1018.8
2014-Jul-17 15:00N 55°36' W 009°24'7 6.9 1018.8
2014-Jul-17 14:00N 55°42' W 009°30'3 3.4 1019.3
2014-Jul-17 13:00N 55°42' W 009°36'7 3.4 1019.1
2014-Jul-17 11:00N 55°48' W 009°42'0 0.0 1019.3
2014-Jul-17 10:00N 55°48' W 009°42'7 6.9 1018.8
2014-Jul-17 09:00N 55°54' W 009°48'1212.0 1018.9
2014-Jul-17 08:00N 56°06' W 009°48'1212.0 1018.5
2014-Jul-17 07:00N 56°18' W 009°48'0 0.0 1018.0
2014-Jul-17 06:00N 56°18' W 009°48'3 3.3 1017.9
2014-Jul-17 05:00N 56°18' W 009°42'9 9.0 1017.8
2014-Jul-17 04:00N 56°12' W 009°30'0 0.0 1017.8
2014-Jul-17 03:00N 56°12' W 009°30'3 3.3 1017.7
2014-Jul-17 02:00N 56°12' W 009°24'3 3.3 1017.7
2014-Jul-17 01:00N 56°12' W 009°18'7 6.9 1017.6
2014-Jul-17 00:00N 56°06' W 009°12'0 0.0 1017.5
2014-Jul-16 23:00N 56°06' W 009°12'0 0.0 1017.0
2014-Jul-16 22:00N 56°06' W 009°12'1211.7 1016.7
2014-Jul-16 21:00N 56°00' W 008°54'3 3.4 1016.4
2014-Jul-16 20:00N 56°00' W 008°48'9 9.0 1015.5
2014-Jul-16 19:00N 56°06' W 008°36'1010.0 1014.9
2014-Jul-16 18:00N 56°06' W 008°18'7 6.9 1014.0
2014-Jul-16 17:00N 56°12' W 008°12'1212.0 1014.1
2014-Jul-16 16:00N 56°00' W 008°12'7 6.9 1014.0
2014-Jul-16 15:00N 55°54' W 008°18'7 6.7 1013.7
2014-Jul-16 14:00N 55°54' W 008°30'9 9.0 1012.3
2014-Jul-16 13:00N 55°48' W 008°18'7 6.9 1011.5
2014-Jul-16 12:00N 55°42' W 008°12'7 6.9 1011.4
2014-Jul-16 11:00N 55°36' W 008°18'7 6.9 1011.3
2014-Jul-16 10:00N 55°30' W 008°12'1212.0 1010.9
2014-Jul-16 09:00N 55°18' W 008°12'3 3.4 1010.6
2014-Jul-16 08:00N 55°18' W 008°06'7 6.8 1009.6
2014-Jul-16 07:00N 55°18' W 007°54'7 6.8 1009.2
2014-Jul-16 06:00N 55°18' W 007°42'1212.5 1009.4
2014-Jul-16 05:00N 55°30' W 007°48'6 6.0 1009.1
2014-Jul-16 04:00N 55°36' W 007°48'7 6.9 1009.2
2014-Jul-16 03:00N 55°42' W 007°42'7 6.9 1010.1
2014-Jul-16 02:00N 55°48' W 007°48'6 6.0 1011.1
2014-Jul-16 01:00N 55°54' W 007°48'6 6.0 1011.2
2014-Jul-16 00:00N 56°00' W 007°48'9 9.0 1012.5
2014-Jul-15 23:00N 55°54' W 007°36'7 6.7 1014.1
2014-Jul-15 22:00N 55°54' W 007°24'1212.0 1014.4
2014-Jul-15 21:00N 55°42' W 007°24'1212.0 1014.6
2014-Jul-15 20:00N 55°30' W 007°24'3 3.4 1015.0
2014-Jul-15 19:00N 55°30' W 007°18'1010.2 1015.9
2014-Jul-15 18:00N 55°30' W 007°00'0 0.0 1016.8
2014-Jul-15 17:00N 55°30' W 007°00'6 6.0 1016.9
2014-Jul-15 16:00N 55°36' W 007°00'6 6.0 1017.6
2014-Jul-15 15:00N 55°42' W 007°00'3 3.4 1017.4
2014-Jul-15 14:00N 55°42' W 006°54'1211.8 1018.0
2014-Jul-15 13:00N 55°36' W 006°36'6 6.0 1018.4
2014-Jul-15 12:00N 55°30' W 006°36'0 0.0 1018.0
2014-Jul-15 11:00N 55°30' W 006°36'1212.5 1017.7
2014-Jul-15 10:00N 55°18' W 006°30'3 3.4 1017.4
2014-Jul-15 09:00N 55°18' W 006°24'7 6.8 1016.9
2014-Jul-15 08:00N 55°18' W 006°12'6 6.0 1016.6
2014-Jul-15 07:00N 55°24' W 006°12'3 3.4 1016.0
2014-Jul-15 06:00N 55°24' W 006°06'9 9.1 1015.0
2014-Jul-15 05:00N 55°18' W 005°54'6 6.0 1014.8
2014-Jul-15 04:00N 55°12' W 005°54'9 9.1 1014.4
2014-Jul-15 03:00N 55°06' W 005°42'7 6.9 1013.5
2014-Jul-15 02:00N 55°00' W 005°36'7 6.9 1013.1
2014-Jul-15 01:00N 54°54' W 005°30'7 6.9 1012.7
2014-Jul-15 00:00N 54°48' W 005°24'3 3.5 1012.6
2014-Jul-14 23:00N 54°48' W 005°30'9 9.2 1011.9
2014-Jul-14 22:00N 54°42' W 005°42'9 9.2 1011.4
2014-Jul-14 21:00N 54°36' W 005°54'0 0.0 1010.9
2014-Jul-14 20:00N 54°36' W 005°54'0 0.0 1009.9
2014-Jul-14 17:00N 54°36' W 005°54'0 0.0 1006.2
2014-Jul-14 15:00N 54°36' W 005°54'0 0.0 1004.9
2014-Jul-14 14:00N 54°36' W 005°54'0 0.0 1005.1
2014-Jul-14 13:00N 54°36' W 005°54'0 0.0 1005.5
2014-Jul-14 12:00N 54°36' W 005°54'0 0.0 1005.7
2014-Jul-14 11:00N 54°36' W 005°54'0 0.0 1006.3
2014-Jul-14 10:00N 54°36' W 005°54'0 0.0 1007.0
2014-Jul-14 09:00N 54°36' W 005°54'0 0.0 1007.4
2014-Jul-14 06:00N 54°36' W 005°54'0 0.0 1009.3
2014-Jul-14 05:00N 54°36' W 005°54'0 0.0 1009.6
2014-Jul-14 04:00N 54°36' W 005°54'0 0.0 1009.6
2014-Jul-14 03:00N 54°36' W 005°54'0 0.0 1010.1
2014-Jul-14 02:00N 54°36' W 005°54'0 0.0 1010.8
2014-Jul-14 01:00N 54°36' W 005°54'0 0.0 1011.2
2014-Jul-14 00:00N 54°36' W 005°54'0 0.0 1011.5
2014-Jul-13 23:00N 54°36' W 005°54'0 0.0 1011.7
2014-Jul-13 22:00N 54°36' W 005°54'0 0.0 1011.7
2014-Jul-13 21:00N 54°36' W 005°54'0 0.0 1011.7
2014-Jul-13 20:00N 54°36' W 005°54'0 0.0 1011.4
2014-Jul-13 19:00N 54°36' W 005°54'0 0.0 1011.1
2014-Jul-13 18:00N 54°36' W 005°54'0 0.0 1011.1
2014-Jul-13 17:00N 54°36' W 005°54'0 0.0 1011.2
2014-Jul-13 16:00N 54°36' W 005°54'0 0.0 1011.1
2014-Jul-13 15:00N 54°36' W 005°54'0 0.0 1011.1
2014-Jul-13 14:00N 54°36' W 005°54'0 0.0 1011.0
2014-Jul-13 13:00N 54°36' W 005°54'0 0.0 1010.5
2014-Jul-13 12:00N 54°36' W 005°54'0 0.0 1010.3
2014-Jul-13 11:00N 54°36' W 005°54'0 0.0 1010.1
2014-Jul-13 10:00N 54°36' W 005°54'0 0.0 1010.0
2014-Jul-13 09:00N 54°36' W 005°54'0 0.0 1010.3
2014-Jul-13 08:00N 54°36' W 005°54'0 0.0 1009.9
2014-Jul-13 07:00N 54°36' W 005°54'0 0.0 1009.5
2014-Jul-13 06:00N 54°36' W 005°54'0 0.0 1009.4
2014-Jul-13 05:00N 54°36' W 005°54'0 0.0 1008.9
2014-Jul-13 04:00N 54°36' W 005°54'0 0.0 1008.6
2014-Jul-13 03:00N 54°36' W 005°54'0 0.0 1008.6
2014-Jul-13 02:00N 54°36' W 005°54'0 0.0 1008.3
2014-Jul-13 01:00N 54°36' W 005°54'0 0.0 1008.0
2014-Jul-13 00:00N 54°36' W 005°54'7 6.9 1008.1
2014-Jul-12 23:00N 54°42' W 005°48'1010.4 1007.3
2014-Jul-12 22:00N 54°42' W 005°30'7 6.9 1007.5
2014-Jul-12 21:00N 54°36' W 005°24'7 6.9 1007.5
2014-Jul-12 20:00N 54°30' W 005°18'1212.5 1007.8
2014-Jul-12 19:00N 54°18' W 005°12'9 9.2 1008.3
2014-Jul-12 18:00N 54°12' W 005°00'1312.5 1008.9
2014-Jul-12 17:00N 54°00' W 004°54'0 0.0 1009.5
2014-Jul-12 16:00N 54°00' W 004°54'6 6.0 1010.1
2014-Jul-12 15:00N 53°54' W 004°54'0 0.0 1010.9
2014-Jul-12 14:00N 53°54' W 004°54'7 7.0 1011.3
2014-Jul-12 13:00N 53°48' W 004°48'4 3.5 1011.3
2014-Jul-12 12:00N 53°48' W 004°42'7 7.0 1012.4
2014-Jul-12 11:00N 53°54' W 004°36'0 0.0 1012.6
2014-Jul-12 10:00N 53°54' W 004°36'4 3.5 1013.1
2014-Jul-12 09:00N 53°54' W 004°30'9 9.3 1013.6
2014-Jul-12 08:00N 54°00' W 004°18'0 0.0 1014.5
2014-Jul-12 07:00N 54°00' W 004°18'0 0.0 1015.1
2014-Jul-12 06:00N 54°00' W 004°18'   1015.1

Dump ship's entire track history